createdAt,value
2022-09-04T00:02:50.338Z,10.05
2022-09-04T00:05:45.799Z,8.77
2022-09-04T00:08:54.597Z,10.30
2022-09-04T00:11:50.263Z,10.15
2022-09-04T00:14:44.374Z,9.60
2022-09-04T00:17:39.762Z,11.68
2022-09-04T00:20:37.588Z,12.07
2022-09-04T00:23:35.921Z,9.85
2022-09-04T00:26:39.908Z,10.48
2022-09-04T00:29:39.279Z,10.13
2022-09-04T00:32:35.200Z,9.95
2022-09-04T00:35:26.371Z,10.57
2022-09-04T00:38:21.148Z,9.35
2022-09-04T00:41:17.279Z,9.20
2022-09-04T00:44:33.435Z,8.75
2022-09-04T00:47:57.102Z,10.40
2022-09-04T00:51:21.202Z,10.20
2022-09-04T00:54:49.520Z,11.27
2022-09-04T00:57:55.331Z,11.50
2022-09-04T01:00:47.366Z,12.45
2022-09-04T01:03:48.494Z,12.88
2022-09-04T01:06:43.035Z,10.82
2022-09-04T01:09:52.808Z,10.07
2022-09-04T01:12:46.945Z,10.80
2022-09-04T01:15:41.357Z,11.02
2022-09-04T01:18:38.639Z,11.00
2022-09-04T01:21:59.673Z,9.40
2022-09-04T01:25:05.859Z,10.30
2022-09-04T01:28:01.696Z,10.07
2022-09-04T01:30:57.355Z,11.43
2022-09-04T01:33:55.108Z,10.13
2022-09-04T01:36:51.292Z,9.85
2022-09-04T01:39:45.535Z,10.48
2022-09-04T01:42:44.335Z,9.05
2022-09-04T01:46:00.526Z,10.07
2022-09-04T01:48:55.654Z,9.25
2022-09-04T01:51:55.992Z,10.60
2022-09-04T01:54:57.038Z,10.60
2022-09-04T01:57:58.733Z,11.05
2022-09-04T02:01:00.547Z,10.45
2022-09-04T02:04:00.174Z,11.70
2022-09-04T02:06:57.638Z,10.40
2022-09-04T02:09:57.070Z,11.60
2022-09-04T02:12:52.241Z,10.60
2022-09-04T02:15:49.840Z,10.70
2022-09-04T02:18:50.844Z,11.10
2022-09-04T02:21:48.268Z,11.90
2022-09-04T02:24:41.674Z,11.32
2022-09-04T02:27:36.619Z,11.98
2022-09-04T02:30:24.532Z,10.77
2022-09-04T02:33:19.674Z,11.35
2022-09-04T02:36:15.105Z,12.00
2022-09-04T02:39:13.642Z,10.52
2022-09-04T02:42:13.639Z,10.85
2022-09-04T02:45:14.400Z,11.73
2022-09-04T02:48:07.603Z,11.23
2022-09-04T02:51:14.083Z,11.55
2022-09-04T02:54:11.881Z,12.13
2022-09-04T02:57:12.252Z,10.63
2022-09-04T03:00:07.781Z,11.98
2022-09-04T03:03:02.254Z,14.15
2022-09-04T03:05:57.798Z,10.85
2022-09-04T03:08:55.344Z,12.07
2022-09-04T03:11:54.071Z,11.88
2022-09-04T03:14:50.535Z,11.18
2022-09-04T03:17:48.926Z,11.95
2022-09-04T03:20:44.445Z,11.80
2022-09-04T03:23:42.171Z,10.80
2022-09-04T03:26:33.487Z,13.63
2022-09-04T03:29:32.165Z,12.38
2022-09-04T03:32:27.993Z,12.25
2022-09-04T03:35:25.361Z,11.73
2022-09-04T03:38:24.680Z,11.75
2022-09-04T03:41:19.778Z,11.32
2022-09-04T03:44:23.200Z,12.10
2022-09-04T03:47:21.024Z,12.20
2022-09-04T03:50:20.326Z,10.93
2022-09-04T03:53:21.144Z,11.10
2022-09-04T03:56:30.926Z,9.80
2022-09-04T03:59:35.956Z,9.88
2022-09-04T04:02:38.336Z,13.30
2022-09-04T04:05:29.307Z,43.15
2022-09-04T04:08:43.574Z,19.25
2022-09-04T04:12:00.385Z,74.07
2022-09-04T04:15:03.463Z,16.55
2022-09-04T04:18:19.310Z,12.70
2022-09-04T04:21:15.081Z,12.25
2022-09-04T04:24:30.078Z,10.85
2022-09-04T04:27:37.266Z,10.65
2022-09-04T04:30:25.371Z,11.98
2022-09-04T04:33:38.626Z,10.77
2022-09-04T04:36:34.347Z,11.65
2022-09-04T04:39:30.444Z,11.35
2022-09-04T04:42:25.056Z,10.93
2022-09-04T04:45:44.734Z,11.15
2022-09-04T04:49:09.930Z,10.68
2022-09-04T04:52:10.651Z,11.05
2022-09-04T04:55:08.893Z,10.82
2022-09-04T04:58:27.362Z,10.43
2022-09-04T05:01:28.414Z,10.98
2022-09-04T05:04:29.904Z,11.25
2022-09-04T05:07:32.355Z,11.45
2022-09-04T05:10:25.900Z,11.68
2022-09-04T05:13:23.730Z,10.95
2022-09-04T05:16:19.783Z,11.82
2022-09-04T05:19:16.498Z,12.05
2022-09-04T05:22:13.557Z,11.80
2022-09-04T05:25:09.196Z,11.13
2022-09-04T05:28:13.109Z,12.15
2022-09-04T05:31:10.903Z,11.95
2022-09-04T05:34:05.888Z,13.40
2022-09-04T05:37:04.372Z,11.85
2022-09-04T05:40:05.520Z,12.18
2022-09-04T05:43:10.237Z,11.23
2022-09-04T05:46:07.613Z,11.15
2022-09-04T05:49:02.959Z,11.60
2022-09-04T05:52:06.474Z,11.10
2022-09-04T05:55:09.157Z,10.75
2022-09-04T05:58:12.092Z,10.82
2022-09-04T06:01:08.947Z,11.25
2022-09-04T06:04:19.428Z,11.23
2022-09-04T06:07:14.020Z,9.43
2022-09-04T06:10:09.393Z,9.88
2022-09-04T06:13:16.591Z,9.75
2022-09-04T06:16:19.173Z,9.15
2022-09-04T06:19:24.233Z,8.77
2022-09-04T06:22:48.571Z,8.77
2022-09-04T06:25:55.006Z,8.07
2022-09-04T06:29:05.293Z,8.18
2022-09-04T06:32:18.945Z,7.38
2022-09-04T06:35:23.068Z,7.57
2022-09-04T06:38:38.070Z,8.25
2022-09-04T06:41:51.672Z,7.88
2022-09-04T06:44:55.110Z,8.13
2022-09-04T06:47:59.284Z,7.60
2022-09-04T06:50:59.280Z,7.53
2022-09-04T06:53:57.659Z,7.88
2022-09-04T06:57:03.412Z,8.18
2022-09-04T07:00:07.154Z,6.85
2022-09-04T07:03:16.381Z,7.25
2022-09-04T07:06:12.505Z,6.93
2022-09-04T07:09:11.417Z,6.28
2022-09-04T07:12:26.598Z,7.68
2022-09-04T07:15:57.302Z,7.95
2022-09-04T07:19:03.707Z,6.68
2022-09-04T07:22:05.387Z,6.80
2022-09-04T07:25:07.777Z,7.53
2022-09-04T07:28:14.645Z,6.50
2022-09-04T07:31:08.106Z,7.03
2022-09-04T07:34:07.309Z,7.35
2022-09-04T07:37:01.624Z,7.38
2022-09-04T07:39:55.349Z,6.45
2022-09-04T07:42:49.994Z,6.40
2022-09-04T07:45:47.650Z,6.57
2022-09-04T07:48:41.377Z,6.28
2022-09-04T07:51:35.392Z,6.50
2022-09-04T07:54:46.874Z,5.70
2022-09-04T07:58:09.102Z,5.75
2022-09-04T08:01:15.069Z,5.97
2022-09-04T08:04:23.075Z,5.50
2022-09-04T08:07:21.013Z,5.78
2022-09-04T08:10:27.513Z,5.68
2022-09-04T08:13:30.979Z,4.68
2022-09-04T08:16:29.141Z,4.88
2022-09-04T08:19:29.831Z,5.03
2022-09-04T08:22:28.463Z,4.80
2022-09-04T08:25:25.273Z,5.28
2022-09-04T08:28:27.488Z,4.78
2022-09-04T08:31:25.159Z,4.45
2022-09-04T08:34:47.099Z,4.63
2022-09-04T08:37:45.104Z,5.03
2022-09-04T08:41:14.881Z,4.53
2022-09-04T08:44:44.213Z,4.68
2022-09-04T08:48:00.965Z,4.95
2022-09-04T08:51:26.918Z,4.47
2022-09-04T08:54:41.121Z,4.25
2022-09-04T08:57:50.725Z,4.82
2022-09-04T09:00:55.839Z,4.32
2022-09-04T09:04:29.390Z,4.57
2022-09-04T09:07:54.826Z,6.53
2022-09-04T09:11:27.853Z,4.38
2022-09-04T09:14:38.488Z,4.35
2022-09-04T09:17:41.187Z,4.53
2022-09-04T09:20:33.301Z,4.07
2022-09-04T09:23:24.056Z,3.90
2022-09-04T09:26:31.231Z,4.45
2022-09-04T09:29:37.781Z,3.53
2022-09-04T09:32:55.197Z,3.85
2022-09-04T09:36:16.255Z,4.07
2022-09-04T09:39:26.790Z,4.10
2022-09-04T09:43:00.916Z,3.53
2022-09-04T09:46:29.317Z,3.80
2022-09-04T09:49:46.986Z,3.72
2022-09-04T09:53:09.442Z,3.63
2022-09-04T09:56:36.276Z,3.45
2022-09-04T10:00:06.083Z,3.40
2022-09-04T10:03:47.046Z,4.03
2022-09-04T10:07:19.912Z,3.20
2022-09-04T10:10:40.581Z,3.00
2022-09-04T10:14:00.788Z,2.92
2022-09-04T10:17:12.499Z,3.63
2022-09-04T10:20:37.520Z,3.65
2022-09-04T10:23:40.463Z,3.45
2022-09-04T10:26:56.112Z,3.50
2022-09-04T10:30:07.173Z,4.50
2022-09-04T10:33:20.824Z,3.40
2022-09-04T10:36:25.739Z,2.80
2022-09-04T10:39:42.836Z,3.40
2022-09-04T10:42:47.101Z,2.75
2022-09-04T10:45:39.689Z,2.88
2022-09-04T10:48:55.230Z,2.47
2022-09-04T10:52:21.886Z,2.50
2022-09-04T10:55:36.457Z,2.50
2022-09-04T10:58:42.518Z,2.58
2022-09-04T11:02:00.735Z,2.90
2022-09-04T11:05:12.734Z,3.22
2022-09-04T11:08:41.171Z,2.60
2022-09-04T11:12:02.043Z,6.20
2022-09-04T11:15:23.953Z,2.70
2022-09-04T11:18:53.890Z,2.95
2022-09-04T11:22:14.716Z,3.10
2022-09-04T11:25:39.210Z,2.80
2022-09-04T11:28:57.265Z,2.60
2022-09-04T11:32:19.817Z,2.25
2022-09-04T11:35:43.424Z,2.15
2022-09-04T11:39:36.519Z,2.13
2022-09-04T11:42:41.509Z,2.20
2022-09-04T11:46:11.380Z,2.03
2022-09-04T11:49:28.228Z,2.58
2022-09-04T11:52:22.772Z,2.58
2022-09-04T11:55:23.554Z,2.30
2022-09-04T11:58:37.706Z,2.08
2022-09-04T12:01:47.786Z,2.30
2022-09-04T12:04:50.149Z,2.47
2022-09-04T12:07:51.816Z,2.95
2022-09-04T12:11:05.341Z,2.30
2022-09-04T12:14:10.178Z,2.17
2022-09-04T12:17:31.008Z,2.20
2022-09-04T12:20:45.481Z,1.98
2022-09-04T12:23:56.014Z,2.40
2022-09-04T12:27:17.101Z,2.03
2022-09-04T12:30:13.833Z,2.95
2022-09-04T12:33:32.569Z,2.15
2022-09-04T12:36:53.369Z,2.20
2022-09-04T12:40:11.409Z,2.00
2022-09-04T12:43:16.719Z,2.13
2022-09-04T12:46:15.357Z,1.90
2022-09-04T12:49:27.432Z,1.92
2022-09-04T12:52:26.595Z,1.83
2022-09-04T12:55:23.289Z,2.30
2022-09-04T12:58:31.325Z,3.25
2022-09-04T13:01:31.972Z,2.22
2022-09-04T13:04:27.691Z,2.13
2022-09-04T13:07:30.945Z,1.80
2022-09-04T13:10:32.796Z,1.77
2022-09-04T13:13:27.998Z,2.63
2022-09-04T13:16:23.625Z,2.17
2022-09-04T13:19:18.685Z,1.95
2022-09-04T13:22:23.346Z,1.80
2022-09-04T13:25:17.352Z,1.83
2022-09-04T13:28:17.746Z,1.80
2022-09-04T13:31:38.544Z,1.98
2022-09-04T13:34:39.138Z,1.80
2022-09-04T13:37:34.187Z,1.85
2022-09-04T13:40:55.096Z,4.53
2022-09-04T13:44:00.752Z,1.60
2022-09-04T13:46:54.188Z,2.08
2022-09-04T13:49:48.185Z,1.65
2022-09-04T13:52:43.295Z,1.73
2022-09-04T13:55:36.192Z,1.77
2022-09-04T13:58:31.429Z,3.08
2022-09-04T14:01:21.862Z,1.90
2022-09-04T14:04:14.760Z,1.70
2022-09-04T14:07:10.245Z,1.70
2022-09-04T14:10:05.145Z,1.95
2022-09-04T14:13:12.584Z,1.73
2022-09-04T14:16:04.239Z,2.08
2022-09-04T14:19:26.917Z,1.83
2022-09-04T14:22:35.164Z,1.67
2022-09-04T14:25:30.924Z,1.98
2022-09-04T14:28:25.188Z,1.65
2022-09-04T14:31:22.733Z,2.13
2022-09-04T14:34:23.351Z,2.03
2022-09-04T14:37:36.287Z,1.75
2022-09-04T14:40:31.077Z,1.63
2022-09-04T14:43:29.002Z,1.90
2022-09-04T14:46:24.447Z,3.00
2022-09-04T14:49:16.762Z,2.53
2022-09-04T14:52:16.777Z,1.80
2022-09-04T14:55:04.733Z,2.13
2022-09-04T14:57:59.664Z,2.33
2022-09-04T15:01:02.981Z,1.90
2022-09-04T15:03:58.186Z,1.80
2022-09-04T15:07:10.766Z,3.90
2022-09-04T15:10:14.992Z,2.60
2022-09-04T15:13:42.359Z,1.80
2022-09-04T15:16:54.466Z,2.17
2022-09-04T15:19:47.664Z,2.20
2022-09-04T15:22:43.079Z,2.00
2022-09-04T15:25:59.763Z,2.13
2022-09-04T15:28:53.122Z,1.90
2022-09-04T15:31:43.372Z,2.15
2022-09-04T15:34:32.687Z,2.00
2022-09-04T15:37:26.852Z,2.08
2022-09-04T15:40:23.583Z,1.90
2022-09-04T15:43:19.551Z,2.13
2022-09-04T15:46:17.915Z,2.42
2022-09-04T15:49:22.528Z,2.33
2022-09-04T15:52:32.426Z,2.38
2022-09-04T15:55:26.078Z,2.10
2022-09-04T15:58:19.888Z,2.67
2022-09-04T16:01:17.356Z,2.80
2022-09-04T16:04:12.744Z,2.70
2022-09-04T16:07:21.226Z,2.90
2022-09-04T16:10:17.891Z,2.33
2022-09-04T16:13:09.385Z,2.45
2022-09-04T16:16:04.346Z,2.47
2022-09-04T16:19:03.814Z,2.78
2022-09-04T16:22:00.180Z,2.75
2022-09-04T16:24:49.355Z,3.50
2022-09-04T16:27:45.397Z,2.42
2022-09-04T16:30:38.464Z,3.13
2022-09-04T16:33:31.968Z,3.15
2022-09-04T16:36:26.104Z,2.80
2022-09-04T16:39:25.650Z,3.70
2022-09-04T16:42:23.434Z,3.30
2022-09-04T16:45:18.155Z,3.40
2022-09-04T16:48:33.912Z,3.30
2022-09-04T16:51:39.847Z,4.70
2022-09-04T16:54:33.494Z,2.47
2022-09-04T16:57:26.852Z,3.15
2022-09-04T17:00:17.752Z,3.47
2022-09-04T17:03:18.982Z,3.10
2022-09-04T17:06:21.851Z,3.35
2022-09-04T17:09:21.551Z,3.25
2022-09-04T17:12:21.203Z,3.28
2022-09-04T17:15:18.722Z,2.53
2022-09-04T17:18:09.140Z,3.67
2022-09-04T17:28:44.681Z,3.00
2022-09-04T17:28:57.815Z,3.05
2022-09-04T17:29:13.813Z,2.83
2022-09-04T17:30:54.668Z,2.80
2022-09-04T17:39:52.890Z,2.72
2022-09-04T17:40:53.606Z,2.78
2022-09-04T17:40:55.856Z,2.97
2022-09-04T17:43:46.291Z,2.78
2022-09-04T17:46:37.500Z,2.60
2022-09-04T17:49:34.350Z,3.30
2022-09-04T17:52:27.088Z,2.45
2022-09-04T17:55:15.474Z,2.88
2022-09-04T17:58:10.760Z,3.20
2022-09-04T18:01:14.640Z,2.80
2022-09-04T18:04:22.717Z,2.90
2022-09-04T18:07:44.718Z,2.85
2022-09-04T18:10:32.576Z,3.25
2022-09-04T18:13:37.688Z,3.63
2022-09-04T18:17:11.883Z,3.40
2022-09-04T18:20:11.270Z,3.05
2022-09-04T18:23:16.931Z,2.97
2022-09-04T18:26:11.039Z,3.30
2022-09-04T18:29:26.413Z,2.65
2022-09-04T18:37:20.786Z,2.97
2022-09-04T18:37:27.095Z,3.45
2022-09-04T18:39:08.953Z,2.95
2022-09-04T18:50:25.801Z,3.28
2022-09-04T18:50:46.367Z,3.25
2022-09-04T18:51:04.444Z,3.35
2022-09-04T18:51:59.582Z,3.67
2022-09-04T18:54:51.608Z,4.03
2022-09-04T18:57:49.305Z,3.55
2022-09-04T19:00:46.627Z,4.05
2022-09-04T19:03:43.517Z,3.63
2022-09-04T19:06:35.244Z,3.63
2022-09-04T19:09:27.839Z,4.13
2022-09-04T19:12:21.575Z,3.42
2022-09-04T19:15:23.825Z,4.20
2022-09-04T19:18:31.363Z,3.70
2022-09-04T19:21:28.216Z,4.57
2022-09-04T19:24:34.587Z,3.67
2022-09-04T19:27:28.590Z,3.95
2022-09-04T19:30:24.016Z,4.10
2022-09-04T19:33:22.294Z,4.28
2022-09-04T19:36:21.411Z,4.40
2022-09-04T19:45:55.351Z,4.03
2022-09-04T19:46:01.097Z,4.65
2022-09-04T19:46:25.690Z,4.07
2022-09-04T19:49:50.905Z,4.15
2022-09-04T19:53:31.421Z,4.50
2022-09-04T19:55:46.110Z,5.07
2022-09-04T19:58:39.460Z,4.60
2022-09-04T20:01:42.044Z,4.75
2022-09-04T20:04:37.269Z,5.30
2022-09-04T20:07:41.489Z,5.28
2022-09-04T20:10:37.446Z,5.25
2022-09-04T20:13:29.643Z,5.00
2022-09-04T20:16:27.866Z,5.40
2022-09-04T20:19:28.427Z,5.65
2022-09-04T20:22:31.904Z,5.25
2022-09-04T20:25:50.159Z,5.80
2022-09-04T20:28:49.600Z,5.13
2022-09-04T20:31:49.544Z,5.75
2022-09-04T20:34:45.951Z,6.60
2022-09-04T20:37:43.571Z,6.05
2022-09-04T20:40:37.704Z,6.32
2022-09-04T20:43:36.353Z,6.13
2022-09-04T20:50:34.698Z,6.35
2022-09-04T20:52:53.515Z,6.65
2022-09-04T20:53:07.795Z,6.97
2022-09-04T20:56:28.137Z,6.18
2022-09-04T21:03:07.241Z,6.68
2022-09-04T21:03:20.470Z,6.90
2022-09-04T21:06:17.924Z,7.15
2022-09-04T21:09:18.578Z,6.72
2022-09-04T21:12:27.768Z,6.35
2022-09-04T21:15:28.798Z,7.40
2022-09-04T21:18:38.406Z,7.05
2022-09-04T21:21:40.925Z,7.70
2022-09-04T21:24:45.971Z,7.53
2022-09-04T21:28:04.980Z,7.65
2022-09-04T21:31:09.721Z,8.45
2022-09-04T21:34:18.170Z,7.82
2022-09-04T21:37:15.212Z,6.95
2022-09-04T21:40:50.921Z,7.13
2022-09-04T21:44:00.294Z,7.45
2022-09-04T21:47:10.218Z,7.22
2022-09-04T21:50:34.407Z,7.40
2022-09-04T21:53:54.711Z,7.35
2022-09-04T22:02:25.151Z,7.57
2022-09-04T22:02:45.889Z,7.43
2022-09-04T22:03:38.100Z,7.20
2022-09-04T22:07:36.286Z,8.50
2022-09-04T22:13:32.370Z,7.75
2022-09-04T22:13:48.250Z,6.70
2022-09-04T22:17:15.330Z,7.88
2022-09-04T22:20:29.709Z,7.55
2022-09-04T22:23:55.937Z,8.02
2022-09-04T22:27:08.239Z,8.20
2022-09-04T22:30:06.040Z,8.27
2022-09-04T22:33:29.122Z,8.88
2022-09-04T22:36:59.214Z,8.07
2022-09-04T22:40:16.141Z,8.18
2022-09-04T22:43:15.547Z,8.18
2022-09-04T22:46:41.295Z,7.65
2022-09-04T22:49:57.355Z,8.25
2022-09-04T22:53:19.906Z,8.13
2022-09-04T22:56:24.093Z,8.20
2022-09-04T22:59:41.068Z,9.10
2022-09-04T23:03:09.769Z,8.80
2022-09-04T23:13:42.132Z,8.40
2022-09-04T23:13:44.565Z,8.43
2022-09-04T23:14:00.193Z,8.75
2022-09-04T23:17:11.733Z,9.70
2022-09-04T23:26:35.248Z,8.57
2022-09-04T23:26:42.362Z,8.27
2022-09-04T23:27:33.846Z,8.48
2022-09-04T23:30:25.220Z,8.18
2022-09-04T23:33:53.485Z,9.25
2022-09-04T23:37:10.282Z,9.18
2022-09-04T23:40:28.823Z,9.07
2022-09-04T23:43:49.363Z,9.45
2022-09-04T23:47:01.501Z,9.82
2022-09-04T23:49:58.357Z,8.90
2022-09-04T23:53:00.110Z,9.55
2022-09-04T23:56:00.188Z,9.63
2022-09-04T23:59:24.271Z,10.55
